Pagina principale
METAR-TAF:

METAR-TAF

Aeroporti :

Aeroporto Internazionale del Kuwait

Madinat al-Kuwait, Kuwait

latitudine: 29-13N, longitudine: 047-59E, altezza: 55 m

Osservazione

Il bollettino è stato emesso 1 ora e 13 minuti fa, alle 14:00 UTC
Vento 13 kt da sud-est
Temperature 37°C
Umidità 15%
Pressione 1007 hPa
Visibilità 10 km o più
nessuna nube inferiore a 1500 m e nessun cumulonembo

METAR: OKBK 211400Z 13013KT CAVOK 37/06 Q1007 NOSIG

Ora: 18:13 (15:13 UTC)

Previsione

Il bollettino è stato emesso 4 ore e 28 minuti fa, alle 10:45 UTC
Previsione valida dal 21 alle 12 UTC al 22 alle 18 UTC
Vento 12 kt da sud/sud-est
Visibilità: 7000 m
Cielo sereno

TAF: OKBK 211045Z 2112/2218 16012KT 7000 SKC

Osservazioni e previsioni meteorologiche di più di 4000 aeroporti (messaggi METAR e TAF).

Le stazioni disponibili sono rappresentate dai dischi gialli e rossi sulla carta.

Puntare il mouse per vedere il nome della stazione.

Clicca sopra per visualizzare le osservazioni e previsioni meteorologiche.

Per cambiare la mappa : fare clic sui pulsanti verdi con una croce nera per ingrandire, il pulsante verde con un trattino per diminuire, o sulla freccia verde per le mappe adiacenti.


METAR-TAF: